KSJC/SJC METAR and TAF weather

Enter ICAO airport designator
Station Type Date Time Source
KSJC METAR 2021/04/17 01:53 UTC NOAA

KSJC 170153Z 32011KT 10SM CLR 15/07 A2998 RMK AO2 SLP152 T01500072


Station Type Date Time Source
KSJC Decoded METAR 2021/04/17 01:53 UTC NOAA

SAN JOSE INTERNATIONAL AIRPORT, CA, United States (KSJC) 37-22N 121-55W 25M
Apr 16, 2021 - 09:53 PM EDT / 2021.04.17 0153 UTC
Wind: from the NW (320 degrees) at 13 MPH (11 KT):0
Visibility: 10 mile(s):0
Sky conditions: clear
Temperature: 59.0 F (15.0 C)
Dew Point: 45.0 F (7.2 C)
Relative Humidity: 59%
Pressure (altimeter): 29.98 in. Hg (1015 hPa)
ob: KSJC 170153Z 32011KT 10SM CLR 15/07 A2998 RMK AO2 SLP152 T01500072
cycle: 2

Station Type Date Time Source
KSJC TAF 2021/04/16 18:36 UTC NOAA

TAF KSJC 161733Z 1618/1718 VRB03KT P6SM SKC
FM161900 31010KT P6SM SKC
FM170300 30007KT P6SM SKC
FM171000 12004KT P6SM SCT008
FM171700 VRB03KT P6SM FEW010

Example: see airport list